sensor_id;sensor_type;location;lat;lon;timestamp;pressure;altitude;pressure_sealevel;temperature;humidity
15884;BME280;8040;50.254;10.960;2023-03-03T00:02:22;98506.22;;;5.28;54.29
15884;BME280;8040;50.254;10.960;2023-03-03T00:04:48;98507.00;;;5.23;54.13
15884;BME280;8040;50.254;10.960;2023-03-03T00:07:13;98501.31;;;5.15;54.23
15884;BME280;8040;50.254;10.960;2023-03-03T00:09:46;98502.53;;;5.02;53.85
15884;BME280;8040;50.254;10.960;2023-03-03T00:12:20;98501.41;;;4.93;54.55
15884;BME280;8040;50.254;10.960;2023-03-03T00:14:47;98512.19;;;4.98;54.31
15884;BME280;8040;50.254;10.960;2023-03-03T00:19:47;98512.94;;;4.89;55.09
15884;BME280;8040;50.254;10.960;2023-03-03T00:22:35;98515.34;;;4.90;55.16
15884;BME280;8040;50.254;10.960;2023-03-03T00:25:24;98522.38;;;4.96;55.11
15884;BME280;8040;50.254;10.960;2023-03-03T00:27:51;98500.25;;;4.84;54.95
15884;BME280;8040;50.254;10.960;2023-03-03T00:30:25;98526.88;;;4.86;54.95
15884;BME280;8040;50.254;10.960;2023-03-03T00:32:51;98517.41;;;4.78;55.49
15884;BME280;8040;50.254;10.960;2023-03-03T00:35:29;98518.75;;;4.76;55.07
15884;BME280;8040;50.254;10.960;2023-03-03T00:37:57;98526.56;;;4.82;55.26
15884;BME280;8040;50.254;10.960;2023-03-03T00:40:32;98520.06;;;4.73;55.14
15884;BME280;8040;50.254;10.960;2023-03-03T00:43:00;98526.41;;;4.62;55.33
15884;BME280;8040;50.254;10.960;2023-03-03T00:47:54;98526.94;;;4.64;55.26
15884;BME280;8040;50.254;10.960;2023-03-03T00:50:26;98532.03;;;4.61;55.49
15884;BME280;8040;50.254;10.960;2023-03-03T00:52:59;98535.34;;;4.46;55.34
15884;BME280;8040;50.254;10.960;2023-03-03T00:55:26;98533.19;;;4.43;55.63
15884;BME280;8040;50.254;10.960;2023-03-03T00:57:52;98528.78;;;4.32;55.64
15884;BME280;8040;50.254;10.960;2023-03-03T01:00:17;98525.53;;;4.30;56.37
15884;BME280;8040;50.254;10.960;2023-03-03T01:02:43;98515.81;;;4.24;56.35
15884;BME280;8040;50.254;10.960;2023-03-03T01:05:15;98514.06;;;4.13;56.72
15884;BME280;8040;50.254;10.960;2023-03-03T01:07:41;98519.75;;;4.17;56.60
15884;BME280;8040;50.254;10.960;2023-03-03T01:10:07;98511.44;;;4.18;57.05
15884;BME280;8040;50.254;10.960;2023-03-03T01:12:36;98515.19;;;4.17;56.96
15884;BME280;8040;50.254;10.960;2023-03-03T01:15:05;98510.03;;;4.11;56.74
15884;BME280;8040;50.254;10.960;2023-03-03T01:17:30;98515.09;;;4.07;56.82
15884;BME280;8040;50.254;10.960;2023-03-03T01:19:56;98501.06;;;4.00;56.85
15884;BME280;8040;50.254;10.960;2023-03-03T01:22:21;98493.88;;;3.84;57.48
15884;BME280;8040;50.254;10.960;2023-03-03T01:24:46;98513.84;;;3.93;57.84
15884;BME280;8040;50.254;10.960;2023-03-03T01:27:12;98509.09;;;3.79;57.94
15884;BME280;8040;50.254;10.960;2023-03-03T01:29:37;98516.72;;;3.87;57.81
15884;BME280;8040;50.254;10.960;2023-03-03T01:32:02;98509.97;;;3.84;57.82
15884;BME280;8040;50.254;10.960;2023-03-03T01:34:28;98491.44;;;3.83;57.89
15884;BME280;8040;50.254;10.960;2023-03-03T01:36:53;98504.53;;;3.79;58.01
15884;BME280;8040;50.254;10.960;2023-03-03T01:39:19;98500.69;;;3.70;58.11
15884;BME280;8040;50.254;10.960;2023-03-03T01:41:46;98500.44;;;3.72;58.60
15884;BME280;8040;50.254;10.960;2023-03-03T01:44:14;98497.47;;;3.73;58.29
15884;BME280;8040;50.254;10.960;2023-03-03T01:50:00;98508.91;;;3.64;58.08
15884;BME280;8040;50.254;10.960;2023-03-03T01:52:37;98511.34;;;3.65;58.22
15884;BME280;8040;50.254;10.960;2023-03-03T01:55:09;98496.38;;;3.69;57.79
15884;BME280;8040;50.254;10.960;2023-03-03T01:57:40;98489.25;;;3.58;57.47
15884;BME280;8040;50.254;10.960;2023-03-03T02:00:07;98491.13;;;3.58;57.65
15884;BME280;8040;50.254;10.960;2023-03-03T02:02:53;98500.47;;;3.55;57.71
15884;BME280;8040;50.254;10.960;2023-03-03T02:05:19;98502.44;;;3.43;58.16
15884;BME280;8040;50.254;10.960;2023-03-03T02:07:45;98496.66;;;3.30;58.87
15884;BME280;8040;50.254;10.960;2023-03-03T02:10:14;98512.22;;;3.33;59.02
15884;BME280;8040;50.254;10.960;2023-03-03T02:12:42;98475.38;;;3.23;58.92
15884;BME280;8040;50.254;10.960;2023-03-03T02:15:35;98496.97;;;3.33;58.93
15884;BME280;8040;50.254;10.960;2023-03-03T02:23:26;98490.78;;;3.33;58.81
15884;BME280;8040;50.254;10.960;2023-03-03T02:28:20;98500.06;;;3.25;59.03
15884;BME280;8040;50.254;10.960;2023-03-03T02:30:46;98500.72;;;3.16;59.37
15884;BME280;8040;50.254;10.960;2023-03-03T02:33:11;98492.94;;;3.14;59.53
15884;BME280;8040;50.254;10.960;2023-03-03T02:35:38;98489.03;;;3.05;59.50
15884;BME280;8040;50.254;10.960;2023-03-03T02:38:16;98513.56;;;3.14;59.72
15884;BME280;8040;50.254;10.960;2023-03-03T02:40:55;98500.72;;;3.16;59.37
15884;BME280;8040;50.254;10.960;2023-03-03T02:43:29;98486.44;;;3.10;59.60
15884;BME280;8040;50.254;10.960;2023-03-03T02:45:57;98497.00;;;3.17;59.45
15884;BME280;8040;50.254;10.960;2023-03-03T02:48:23;98493.03;;;3.03;59.79
15884;BME280;8040;50.254;10.960;2023-03-03T02:50:48;98498.16;;;3.04;60.21
15884;BME280;8040;50.254;10.960;2023-03-03T02:53:14;98493.94;;;3.08;60.01
15884;BME280;8040;50.254;10.960;2023-03-03T02:55:40;98498.00;;;3.11;60.08
15884;BME280;8040;50.254;10.960;2023-03-03T02:58:05;98480.44;;;3.03;60.02
15884;BME280;8040;50.254;10.960;2023-03-03T03:00:30;98446.22;;;2.89;60.05
15884;BME280;8040;50.254;10.960;2023-03-03T03:02:56;98488.06;;;3.11;59.26
15884;BME280;8040;50.254;10.960;2023-03-03T03:05:21;98473.28;;;3.09;59.50
15884;BME280;8040;50.254;10.960;2023-03-03T03:07:47;98490.66;;;3.06;59.76
15884;BME280;8040;50.254;10.960;2023-03-03T03:10:12;98476.22;;;2.91;60.17
15884;BME280;8040;50.254;10.960;2023-03-03T03:12:38;98494.25;;;2.95;60.61
15884;BME280;8040;50.254;10.960;2023-03-03T03:15:03;98503.03;;;2.91;60.34
15884;BME280;8040;50.254;10.960;2023-03-03T03:17:29;98502.47;;;2.89;60.48
15884;BME280;8040;50.254;10.960;2023-03-03T03:19:54;98498.16;;;2.88;60.57
15884;BME280;8040;50.254;10.960;2023-03-03T03:22:20;98513.50;;;2.92;60.63
15884;BME280;8040;50.254;10.960;2023-03-03T03:24:45;98513.66;;;3.02;60.39
15884;BME280;8040;50.254;10.960;2023-03-03T03:27:10;98504.06;;;3.06;60.25
15884;BME280;8040;50.254;10.960;2023-03-03T03:29:36;98507.31;;;2.92;60.24
15884;BME280;8040;50.254;10.960;2023-03-03T03:32:01;98504.25;;;2.83;60.56
15884;BME280;8040;50.254;10.960;2023-03-03T03:34:27;98506.66;;;2.85;60.99
15884;BME280;8040;50.254;10.960;2023-03-03T03:36:52;98504.16;;;2.78;60.88
15884;BME280;8040;50.254;10.960;2023-03-03T03:39:17;98507.50;;;2.85;60.79
15884;BME280;8040;50.254;10.960;2023-03-03T03:41:43;98500.91;;;2.76;61.29
15884;BME280;8040;50.254;10.960;2023-03-03T03:44:08;98496.78;;;2.85;61.14
15884;BME280;8040;50.254;10.960;2023-03-03T03:46:33;98501.50;;;2.78;61.00
15884;BME280;8040;50.254;10.960;2023-03-03T03:48:59;98521.34;;;2.82;61.02
15884;BME280;8040;50.254;10.960;2023-03-03T03:51:24;98506.69;;;2.68;60.99
15884;BME280;8040;50.254;10.960;2023-03-03T03:53:49;98528.28;;;2.78;61.18
15884;BME280;8040;50.254;10.960;2023-03-03T03:56:15;98526.66;;;2.77;61.02
15884;BME280;8040;50.254;10.960;2023-03-03T03:58:40;98513.19;;;2.72;61.26
15884;BME280;8040;50.254;10.960;2023-03-03T04:01:07;98518.28;;;2.74;61.66
15884;BME280;8040;50.254;10.960;2023-03-03T04:03:35;98526.56;;;2.72;61.67
15884;BME280;8040;50.254;10.960;2023-03-03T04:06:00;98530.97;;;2.78;61.82
15884;BME280;8040;50.254;10.960;2023-03-03T04:08:25;98521.31;;;2.77;61.81
15884;BME280;8040;50.254;10.960;2023-03-03T04:10:51;98525.59;;;2.78;61.83
15884;BME280;8040;50.254;10.960;2023-03-03T04:13:16;98528.38;;;2.83;61.97
15884;BME280;8040;50.254;10.960;2023-03-03T04:15:42;98525.41;;;2.85;61.65
15884;BME280;8040;50.254;10.960;2023-03-03T04:18:07;98503.34;;;2.78;61.46
15884;BME280;8040;50.254;10.960;2023-03-03T04:20:33;98516.31;;;2.69;61.78
15884;BME280;8040;50.254;10.960;2023-03-03T04:22:58;98507.22;;;2.70;62.00
15884;BME280;8040;50.254;10.960;2023-03-03T04:25:24;98508.28;;;2.69;62.06
15884;BME280;8040;50.254;10.960;2023-03-03T04:27:49;98519.84;;;2.70;61.75
15884;BME280;8040;50.254;10.960;2023-03-03T04:30:17;98508.69;;;2.61;61.74
15884;BME280;8040;50.254;10.960;2023-03-03T04:32:42;98516.19;;;2.59;61.87
15884;BME280;8040;50.254;10.960;2023-03-03T04:35:09;98504.97;;;2.62;61.81
15884;BME280;8040;50.254;10.960;2023-03-03T04:37:35;98519.25;;;2.68;62.07
15884;BME280;8040;50.254;10.960;2023-03-03T04:40:01;98518.69;;;2.66;62.05
15884;BME280;8040;50.254;10.960;2023-03-03T04:42:27;98517.88;;;2.65;62.05
15884;BME280;8040;50.254;10.960;2023-03-03T04:44:53;98511.94;;;2.63;61.94
15884;BME280;8040;50.254;10.960;2023-03-03T04:47:18;98506.50;;;2.58;61.75
15884;BME280;8040;50.254;10.960;2023-03-03T04:49:43;98508.84;;;2.55;61.89
15884;BME280;8040;50.254;10.960;2023-03-03T04:52:09;98519.19;;;2.63;61.76
15884;BME280;8040;50.254;10.960;2023-03-03T04:54:34;98522.56;;;2.58;62.06
15884;BME280;8040;50.254;10.960;2023-03-03T04:57:00;98499.75;;;2.39;61.96
15884;BME280;8040;50.254;10.960;2023-03-03T04:59:25;98521.25;;;2.44;62.07
15884;BME280;8040;50.254;10.960;2023-03-03T05:01:50;98512.06;;;2.40;62.00
15884;BME280;8040;50.254;10.960;2023-03-03T05:04:16;98509.47;;;2.45;62.08
15884;BME280;8040;50.254;10.960;2023-03-03T05:06:41;98532.06;;;2.49;62.10
15884;BME280;8040;50.254;10.960;2023-03-03T05:09:07;98519.06;;;2.41;62.38
15884;BME280;8040;50.254;10.960;2023-03-03T05:11:33;98519.06;;;2.41;62.50
15884;BME280;8040;50.254;10.960;2023-03-03T05:13:59;98523.38;;;2.42;62.18
15884;BME280;8040;50.254;10.960;2023-03-03T05:16:24;98519.22;;;2.35;62.38
15884;BME280;8040;50.254;10.960;2023-03-03T05:18:49;98523.41;;;2.31;62.35
15884;BME280;8040;50.254;10.960;2023-03-03T05:21:15;98528.94;;;2.41;61.96
15884;BME280;8040;50.254;10.960;2023-03-03T05:23:40;98535.19;;;2.46;61.62
15884;BME280;8040;50.254;10.960;2023-03-03T05:26:06;98529.09;;;2.34;61.80
15884;BME280;8040;50.254;10.960;2023-03-03T05:28:32;98542.00;;;2.37;61.87
15884;BME280;8040;50.254;10.960;2023-03-03T05:30:57;98533.66;;;2.34;61.42
15884;BME280;8040;50.254;10.960;2023-03-03T05:33:23;98544.44;;;2.39;61.53
15884;BME280;8040;50.254;10.960;2023-03-03T05:35:52;98564.94;;;2.33;61.74
15884;BME280;8040;50.254;10.960;2023-03-03T05:38:18;98555.28;;;2.32;61.88
15884;BME280;8040;50.254;10.960;2023-03-03T05:40:43;98554.72;;;2.30;61.80
15884;BME280;8040;50.254;10.960;2023-03-03T05:43:09;98548.78;;;2.28;61.60
15884;BME280;8040;50.254;10.960;2023-03-03T05:45:34;98544.06;;;2.19;61.74
15884;BME280;8040;50.254;10.960;2023-03-03T05:47:59;98555.56;;;2.19;61.48
15884;BME280;8040;50.254;10.960;2023-03-03T05:50:25;98553.22;;;2.23;61.81
15884;BME280;8040;50.254;10.960;2023-03-03T05:52:52;98535.03;;;2.08;61.81
15884;BME280;8040;50.254;10.960;2023-03-03T05:55:18;98558.47;;;2.18;61.64
15884;BME280;8040;50.254;10.960;2023-03-03T05:57:44;98541.91;;;2.04;61.51
15884;BME280;8040;50.254;10.960;2023-03-03T06:00:12;98556.09;;;2.05;61.66
15884;BME280;8040;50.254;10.960;2023-03-03T06:02:38;98553.31;;;2.00;61.75
15884;BME280;8040;50.254;10.960;2023-03-03T06:05:04;98560.19;;;1.96;61.96
15884;BME280;8040;50.254;10.960;2023-03-03T06:07:30;98576.69;;;2.04;61.98
15884;BME280;8040;50.254;10.960;2023-03-03T06:09:55;98575.75;;;2.10;62.01
15884;BME280;8040;50.254;10.960;2023-03-03T06:12:20;98575.66;;;2.05;61.86
15884;BME280;8040;50.254;10.960;2023-03-03T06:14:46;98589.34;;;2.09;62.00
15884;BME280;8040;50.254;10.960;2023-03-03T06:17:11;98605.41;;;2.09;61.90
15884;BME280;8040;50.254;10.960;2023-03-03T06:19:37;98599.13;;;2.03;62.27
15884;BME280;8040;50.254;10.960;2023-03-03T06:22:03;98606.53;;;2.13;61.78
15884;BME280;8040;50.254;10.960;2023-03-03T06:24:28;98602.56;;;2.15;61.89
15884;BME280;8040;50.254;10.960;2023-03-03T06:26:59;98598.50;;;2.24;61.58
15884;BME280;8040;50.254;10.960;2023-03-03T06:29:25;98599.06;;;2.26;61.80
15884;BME280;8040;50.254;10.960;2023-03-03T06:31:51;98607.31;;;2.36;61.82
15884;BME280;8040;50.254;10.960;2023-03-03T06:34:16;98608.91;;;2.37;61.79
15884;BME280;8040;50.254;10.960;2023-03-03T06:36:41;98607.75;;;2.33;61.28
15884;BME280;8040;50.254;10.960;2023-03-03T06:39:07;98614.59;;;2.41;61.59
15884;BME280;8040;50.254;10.960;2023-03-03T06:41:32;98616.81;;;2.44;61.75
15884;BME280;8040;50.254;10.960;2023-03-03T06:43:58;98619.13;;;2.40;61.82
15884;BME280;8040;50.254;10.960;2023-03-03T06:46:25;98639.88;;;2.45;61.96
15884;BME280;8040;50.254;10.960;2023-03-03T06:48:50;98642.19;;;2.41;61.85
15884;BME280;8040;50.254;10.960;2023-03-03T06:51:24;98640.47;;;2.35;62.27
15884;BME280;8040;50.254;10.960;2023-03-03T06:53:56;98659.03;;;2.53;62.18
15884;BME280;8040;50.254;10.960;2023-03-03T06:56:23;98649.19;;;2.42;62.37
15884;BME280;8040;50.254;10.960;2023-03-03T06:58:52;98657.59;;;2.62;61.95
15884;BME280;8040;50.254;10.960;2023-03-03T07:01:18;98669.38;;;2.61;62.20
15884;BME280;8040;50.254;10.960;2023-03-03T07:03:44;98663.06;;;2.67;62.39
15884;BME280;8040;50.254;10.960;2023-03-03T07:06:21;98663.38;;;2.71;62.25
15884;BME280;8040;50.254;10.960;2023-03-03T07:08:47;98671.28;;;2.77;62.19
15884;BME280;8040;50.254;10.960;2023-03-03T07:11:17;98664.69;;;2.68;62.15
15884;BME280;8040;50.254;10.960;2023-03-03T07:13:50;98674.75;;;2.78;62.31
15884;BME280;8040;50.254;10.960;2023-03-03T07:16:18;98661.59;;;2.76;62.60
15884;BME280;8040;50.254;10.960;2023-03-03T07:18:56;98669.34;;;2.89;62.25
15884;BME280;8040;50.254;10.960;2023-03-03T07:21:32;98662.75;;;2.80;62.47
15884;BME280;8040;50.254;10.960;2023-03-03T07:23:59;98659.69;;;2.88;62.47
15884;BME280;8040;50.254;10.960;2023-03-03T07:26:29;98664.59;;;2.91;62.82
15884;BME280;8040;50.254;10.960;2023-03-03T07:28:59;98661.84;;;3.03;62.37
15884;BME280;8040;50.254;10.960;2023-03-03T07:31:30;98676.31;;;3.18;62.23
15884;BME280;8040;50.254;10.960;2023-03-03T07:33:59;98680.25;;;2.99;61.87
15884;BME280;8040;50.254;10.960;2023-03-03T07:36:34;98686.56;;;2.93;61.93
15884;BME280;8040;50.254;10.960;2023-03-03T07:39:21;98702.19;;;2.96;62.57
15884;BME280;8040;50.254;10.960;2023-03-03T07:41:49;98694.81;;;3.03;62.70
15884;BME280;8040;50.254;10.960;2023-03-03T07:44:20;98694.97;;;3.13;62.94
15884;BME280;8040;50.254;10.960;2023-03-03T07:46:47;98689.34;;;3.26;62.78
15884;BME280;8040;50.254;10.960;2023-03-03T07:49:34;98692.50;;;3.40;62.90
15884;BME280;8040;50.254;10.960;2023-03-03T07:52:19;98664.16;;;3.44;62.65
15884;BME280;8040;50.254;10.960;2023-03-03T07:54:47;98683.81;;;3.66;62.57
15884;BME280;8040;50.254;10.960;2023-03-03T07:57:48;98703.41;;;3.66;63.56
15884;BME280;8040;50.254;10.960;2023-03-03T08:02:54;98678.19;;;3.18;66.12
15884;BME280;8040;50.254;10.960;2023-03-03T08:05:26;98707.88;;;3.44;66.17
15884;BME280;8040;50.254;10.960;2023-03-03T08:07:55;98691.09;;;3.37;66.10
15884;BME280;8040;50.254;10.960;2023-03-03T08:13:22;98677.88;;;3.31;66.78
15884;BME280;8040;50.254;10.960;2023-03-03T08:16:01;98691.53;;;3.62;66.53
15884;BME280;8040;50.254;10.960;2023-03-03T08:18:34;98681.03;;;3.77;66.27
15884;BME280;8040;50.254;10.960;2023-03-03T08:21:13;98687.47;;;3.76;66.12
15884;BME280;8040;50.254;10.960;2023-03-03T08:23:39;98674.53;;;3.73;65.68
15884;BME280;8040;50.254;10.960;2023-03-03T08:26:05;98680.94;;;3.89;65.45
15884;BME280;8040;50.254;10.960;2023-03-03T08:28:30;98689.00;;;3.72;64.99
15884;BME280;8040;50.254;10.960;2023-03-03T08:30:56;98688.53;;;3.75;65.16
15884;BME280;8040;50.254;10.960;2023-03-03T08:33:21;98693.41;;;3.78;64.81
15884;BME280;8040;50.254;10.960;2023-03-03T08:35:47;98679.66;;;3.75;64.82
15884;BME280;8040;50.254;10.960;2023-03-03T08:38:14;98673.06;;;3.82;64.81
15884;BME280;8040;50.254;10.960;2023-03-03T08:40:43;98679.56;;;3.86;64.19
15884;BME280;8040;50.254;10.960;2023-03-03T08:43:09;98677.50;;;3.72;64.42
15884;BME280;8040;50.254;10.960;2023-03-03T08:45:35;98645.63;;;3.42;64.59
15884;BME280;8040;50.254;10.960;2023-03-03T08:48:01;98676.91;;;3.53;64.80
15884;BME280;8040;50.254;10.960;2023-03-03T08:50:28;98676.50;;;3.61;64.49
15884;BME280;8040;50.254;10.960;2023-03-03T08:52:54;98697.16;;;3.61;64.38
15884;BME280;8040;50.254;10.960;2023-03-03T08:55:20;98668.34;;;3.56;64.70
15884;BME280;8040;50.254;10.960;2023-03-03T08:57:45;98677.31;;;3.62;64.84
15884;BME280;8040;50.254;10.960;2023-03-03T09:00:14;98690.59;;;3.90;64.55
15884;BME280;8040;50.254;10.960;2023-03-03T09:02:40;98688.84;;;3.95;63.96
15884;BME280;8040;50.254;10.960;2023-03-03T09:05:06;98679.09;;;3.89;63.51
15884;BME280;8040;50.254;10.960;2023-03-03T09:07:32;98686.09;;;3.74;63.54
15884;BME280;8040;50.254;10.960;2023-03-03T09:09:57;98679.75;;;3.80;63.41
15884;BME280;8040;50.254;10.960;2023-03-03T09:12:37;98689.00;;;3.89;63.10
15884;BME280;8040;50.254;10.960;2023-03-03T09:17:44;98699.38;;;4.18;62.92
15884;BME280;8040;50.254;10.960;2023-03-03T09:20:32;98719.19;;;4.34;62.36
15884;BME280;8040;50.254;10.960;2023-03-03T09:23:07;98705.38;;;4.47;62.01
15884;BME280;8040;50.254;10.960;2023-03-03T09:25:41;98718.44;;;4.81;61.83
15884;BME280;8040;50.254;10.960;2023-03-03T09:28:25;98710.94;;;4.83;60.69
15884;BME280;8040;50.254;10.960;2023-03-03T09:30:52;98707.06;;;4.74;59.54
15884;BME280;8040;50.254;10.960;2023-03-03T09:33:25;98716.22;;;4.52;59.87
15884;BME280;8040;50.254;10.960;2023-03-03T09:35:56;98706.25;;;4.52;60.04
15884;BME280;8040;50.254;10.960;2023-03-03T09:38:30;98715.31;;;4.68;60.35
15884;BME280;8040;50.254;10.960;2023-03-03T09:41:15;98728.25;;;4.71;60.25
15884;BME280;8040;50.254;10.960;2023-03-03T09:51:52;98722.06;;;4.92;59.67
15884;BME280;8040;50.254;10.960;2023-03-03T09:57:04;98708.53;;;4.82;58.29
15884;BME280;8040;50.254;10.960;2023-03-03T10:05:13;98732.41;;;5.05;57.73
15884;BME280;8040;50.254;10.960;2023-03-03T10:22:06;98722.53;;;5.10;58.25
15884;BME280;8040;50.254;10.960;2023-03-03T10:33:09;98729.50;;;5.33;57.28
15884;BME280;8040;50.254;10.960;2023-03-03T10:38:17;98709.47;;;5.50;56.45
15884;BME280;8040;50.254;10.960;2023-03-03T10:46:27;98709.16;;;5.73;56.56
15884;BME280;8040;50.254;10.960;2023-03-03T10:49:21;98725.53;;;5.67;56.75
15884;BME280;8040;50.254;10.960;2023-03-03T10:54:51;98716.28;;;5.58;57.77
15884;BME280;8040;50.254;10.960;2023-03-03T10:57:28;98705.81;;;5.61;56.88
15884;BME280;8040;50.254;10.960;2023-03-03T11:05:42;98719.91;;;5.73;56.75
15884;BME280;8040;50.254;10.960;2023-03-03T11:16:44;98723.06;;;5.92;55.57
15884;BME280;8040;50.254;10.960;2023-03-03T11:22:19;98697.63;;;6.14;55.34
15884;BME280;8040;50.254;10.960;2023-03-03T11:28:00;98695.91;;;6.45;54.51
15884;BME280;8040;50.254;10.960;2023-03-03T11:30:59;98699.66;;;6.34;54.21
15884;BME280;8040;50.254;10.960;2023-03-03T11:36:38;98674.47;;;6.13;53.92
15884;BME280;8040;50.254;10.960;2023-03-03T11:39:13;98671.59;;;6.30;53.80
15884;BME280;8040;50.254;10.960;2023-03-03T11:44:19;98662.03;;;6.07;53.82
15884;BME280;8040;50.254;10.960;2023-03-03T11:49:37;98680.03;;;6.43;53.65
15884;BME280;8040;50.254;10.960;2023-03-03T11:57:45;98671.56;;;6.81;52.46
15884;BME280;8040;50.254;10.960;2023-03-03T12:00:23;98668.34;;;6.94;51.69
15884;BME280;8040;50.254;10.960;2023-03-03T12:03:00;98655.44;;;7.06;51.35
15884;BME280;8040;50.254;10.960;2023-03-03T12:13:41;98635.50;;;7.37;50.46
15884;BME280;8040;50.254;10.960;2023-03-03T12:16:29;98637.38;;;7.41;50.17
15884;BME280;8040;50.254;10.960;2023-03-03T12:25:22;98628.47;;;7.76;49.57
15884;BME280;8040;50.254;10.960;2023-03-03T12:28:04;98640.59;;;7.93;49.22
15884;BME280;8040;50.254;10.960;2023-03-03T12:37:02;98619.56;;;7.80;49.14
15884;BME280;8040;50.254;10.960;2023-03-03T12:39:53;98629.50;;;8.05;49.31
15884;BME280;8040;50.254;10.960;2023-03-03T12:42:48;98612.78;;;7.98;48.83
15884;BME280;8040;50.254;10.960;2023-03-03T12:45:26;98633.22;;;8.19;48.60
15884;BME280;8040;50.254;10.960;2023-03-03T12:48:00;98624.09;;;8.15;48.44
15884;BME280;8040;50.254;10.960;2023-03-03T12:51:04;98623.25;;;8.29;48.54
15884;BME280;8040;50.254;10.960;2023-03-03T12:56:08;98622.94;;;8.36;47.11
15884;BME280;8040;50.254;10.960;2023-03-03T13:01:21;98618.38;;;8.36;46.93
15884;BME280;8040;50.254;10.960;2023-03-03T13:04:07;98618.09;;;8.38;47.27
15884;BME280;8040;50.254;10.960;2023-03-03T13:06:49;98610.53;;;8.25;47.42
15884;BME280;8040;50.254;10.960;2023-03-03T13:09:43;98621.34;;;8.25;47.49
15884;BME280;8040;50.254;10.960;2023-03-03T13:20:21;98614.84;;;8.31;46.83
15884;BME280;8040;50.254;10.960;2023-03-03T13:23:01;98612.19;;;8.16;46.06
15884;BME280;8040;50.254;10.960;2023-03-03T13:25:39;98609.25;;;7.97;47.43
15884;BME280;8040;50.254;10.960;2023-03-03T13:28:22;98601.22;;;7.67;47.25
15884;BME280;8040;50.254;10.960;2023-03-03T13:31:07;98604.72;;;7.58;47.66
15884;BME280;8040;50.254;10.960;2023-03-03T13:33:34;98601.47;;;7.76;47.96
15884;BME280;8040;50.254;10.960;2023-03-03T13:36:10;98599.53;;;7.91;47.27
15884;BME280;8040;50.254;10.960;2023-03-03T13:38:48;98601.44;;;7.86;46.85
15884;BME280;8040;50.254;10.960;2023-03-03T13:41:27;98607.38;;;7.88;46.91
15884;BME280;8040;50.254;10.960;2023-03-03T13:44:01;98597.72;;;7.67;47.28
15884;BME280;8040;50.254;10.960;2023-03-03T13:49:25;98599.31;;;7.73;46.89
15884;BME280;8040;50.254;10.960;2023-03-03T13:52:05;98612.50;;;7.94;47.06
15884;BME280;8040;50.254;10.960;2023-03-03T14:07:39;98588.19;;;7.94;46.71
15884;BME280;8040;50.254;10.960;2023-03-03T14:12:57;98565.22;;;8.02;45.43
15884;BME280;8040;50.254;10.960;2023-03-03T14:15:32;98579.78;;;8.21;45.16
15884;BME280;8040;50.254;10.960;2023-03-03T14:20:54;98584.94;;;8.02;44.00
15884;BME280;8040;50.254;10.960;2023-03-03T14:26:14;98563.28;;;8.12;44.48
15884;BME280;8040;50.254;10.960;2023-03-03T14:28:42;98561.94;;;8.15;44.62
15884;BME280;8040;50.254;10.960;2023-03-03T14:33:43;98557.41;;;7.90;44.23
15884;BME280;8040;50.254;10.960;2023-03-03T14:36:11;98570.13;;;7.80;44.04
15884;BME280;8040;50.254;10.960;2023-03-03T14:38:40;98553.69;;;7.76;44.48
15884;BME280;8040;50.254;10.960;2023-03-03T14:43:38;98553.69;;;7.76;45.17
15884;BME280;8040;50.254;10.960;2023-03-03T14:46:29;98582.56;;;7.81;45.60
15884;BME280;8040;50.254;10.960;2023-03-03T14:48:57;98565.84;;;7.64;45.94
15884;BME280;8040;50.254;10.960;2023-03-03T14:51:37;98572.88;;;7.55;46.12
15884;BME280;8040;50.254;10.960;2023-03-03T14:54:08;98559.69;;;7.43;46.38
15884;BME280;8040;50.254;10.960;2023-03-03T14:56:36;98561.03;;;7.41;46.79
15884;BME280;8040;50.254;10.960;2023-03-03T15:01:43;98552.94;;;7.21;47.73
15884;BME280;8040;50.254;10.960;2023-03-03T15:06:43;98560.50;;;7.24;48.40
15884;BME280;8040;50.254;10.960;2023-03-03T15:09:39;98561.28;;;7.24;47.66
15884;BME280;8040;50.254;10.960;2023-03-03T15:12:21;98551.06;;;7.32;48.41
15884;BME280;8040;50.254;10.960;2023-03-03T15:14:52;98546.72;;;7.35;48.25
15884;BME280;8040;50.254;10.960;2023-03-03T15:17:32;98544.56;;;7.28;47.85
15884;BME280;8040;50.254;10.960;2023-03-03T15:25:52;98544.84;;;7.06;47.21
15884;BME280;8040;50.254;10.960;2023-03-03T15:31:30;98574.00;;;7.29;47.71
15884;BME280;8040;50.254;10.960;2023-03-03T15:36:46;98571.00;;;7.16;48.01
15884;BME280;8040;50.254;10.960;2023-03-03T15:44:37;98568.59;;;7.04;48.16
15884;BME280;8040;50.254;10.960;2023-03-03T15:47:19;98565.06;;;6.99;48.39
15884;BME280;8040;50.254;10.960;2023-03-03T15:50:04;98566.69;;;7.05;48.48
15884;BME280;8040;50.254;10.960;2023-03-03T15:52:58;98578.28;;;6.95;48.19
15884;BME280;8040;50.254;10.960;2023-03-03T16:01:19;98575.28;;;6.82;48.52
15884;BME280;8040;50.254;10.960;2023-03-03T16:04:03;98582.88;;;6.90;48.65
15884;BME280;8040;50.254;10.960;2023-03-03T16:09:06;98583.09;;;6.68;48.94
15884;BME280;8040;50.254;10.960;2023-03-03T16:12:10;98582.31;;;6.78;48.73
15884;BME280;8040;50.254;10.960;2023-03-03T16:17:35;98584.22;;;7.02;49.75
15884;BME280;8040;50.254;10.960;2023-03-03T16:23:21;98576.94;;;7.13;49.87
15884;BME280;8040;50.254;10.960;2023-03-03T16:28:42;98583.13;;;7.08;49.82
15884;BME280;8040;50.254;10.960;2023-03-03T16:31:20;98544.28;;;6.79;50.22
15884;BME280;8040;50.254;10.960;2023-03-03T16:34:00;98573.41;;;6.97;50.10
15884;BME280;8040;50.254;10.960;2023-03-03T16:53:05;98604.25;;;6.30;51.27
15884;BME280;8040;50.254;10.960;2023-03-03T17:07:02;98624.75;;;5.84;51.85
15884;BME280;8040;50.254;10.960;2023-03-03T17:09:45;98647.91;;;5.85;52.10
15884;BME280;8040;50.254;10.960;2023-03-03T17:12:29;98642.16;;;5.77;52.62
15884;BME280;8040;50.254;10.960;2023-03-03T17:15:08;98640.50;;;5.71;52.47
15884;BME280;8040;50.254;10.960;2023-03-03T17:17:52;98656.94;;;5.74;52.42
15884;BME280;8040;50.254;10.960;2023-03-03T17:20:42;98664.47;;;5.72;52.40
15884;BME280;8040;50.254;10.960;2023-03-03T17:26:28;98650.81;;;5.47;52.84
15884;BME280;8040;50.254;10.960;2023-03-03T17:32:24;98672.59;;;5.19;52.90
15884;BME280;8040;50.254;10.960;2023-03-03T17:40:58;98683.34;;;4.66;54.47
15884;BME280;8040;50.254;10.960;2023-03-03T17:43:40;98664.53;;;4.66;54.60